sensor_id;sensor_type;location;lat;lon;timestamp;P1;durP1;ratioP1;P2;durP2;ratioP2
67776;SDS011;54576;52.020;5.536;2023-12-20T00:00:55;43.22;;;12.15;;
67776;SDS011;54576;52.020;5.536;2023-12-20T00:03:20;47.22;;;13.15;;
67776;SDS011;54576;52.020;5.536;2023-12-20T00:05:46;73.70;;;28.13;;
67776;SDS011;54576;52.020;5.536;2023-12-20T00:08:12;85.45;;;25.17;;
67776;SDS011;54576;52.020;5.536;2023-12-20T00:10:38;135.75;;;37.47;;
67776;SDS011;54576;52.020;5.536;2023-12-20T00:13:05;125.47;;;37.35;;
67776;SDS011;54576;52.020;5.536;2023-12-20T00:15:32;162.55;;;48.78;;
67776;SDS011;54576;52.020;5.536;2023-12-20T00:17:57;122.55;;;30.30;;
67776;SDS011;54576;52.020;5.536;2023-12-20T00:20:23;67.88;;;19.48;;
67776;SDS011;54576;52.020;5.536;2023-12-20T00:22:48;210.05;;;56.88;;
67776;SDS011;54576;52.020;5.536;2023-12-20T00:25:14;79.30;;;21.83;;
67776;SDS011;54576;52.020;5.536;2023-12-20T00:27:40;64.82;;;22.67;;
67776;SDS011;54576;52.020;5.536;2023-12-20T00:30:05;36.38;;;11.57;;
67776;SDS011;54576;52.020;5.536;2023-12-20T00:32:31;65.25;;;25.02;;
67776;SDS011;54576;52.020;5.536;2023-12-20T00:34:57;25.38;;;6.05;;
67776;SDS011;54576;52.020;5.536;2023-12-20T00:37:22;19.67;;;5.40;;
67776;SDS011;54576;52.020;5.536;2023-12-20T00:39:50;45.13;;;15.15;;
67776;SDS011;54576;52.020;5.536;2023-12-20T00:42:16;35.15;;;12.32;;
67776;SDS011;54576;52.020;5.536;2023-12-20T00:44:41;23.63;;;8.10;;
67776;SDS011;54576;52.020;5.536;2023-12-20T00:47:07;38.30;;;9.63;;
67776;SDS011;54576;52.020;5.536;2023-12-20T00:49:32;37.03;;;15.10;;
67776;SDS011;54576;52.020;5.536;2023-12-20T00:51:58;36.75;;;17.23;;
67776;SDS011;54576;52.020;5.536;2023-12-20T00:54:23;26.52;;;9.63;;
67776;SDS011;54576;52.020;5.536;2023-12-20T00:56:49;21.48;;;3.15;;
67776;SDS011;54576;52.020;5.536;2023-12-20T00:59:15;21.35;;;4.70;;
67776;SDS011;54576;52.020;5.536;2023-12-20T01:01:42;19.50;;;3.97;;
67776;SDS011;54576;52.020;5.536;2023-12-20T01:04:08;27.35;;;3.15;;
67776;SDS011;54576;52.020;5.536;2023-12-20T01:06:33;25.42;;;3.50;;
67776;SDS011;54576;52.020;5.536;2023-12-20T01:08:59;7.43;;;2.50;;
67776;SDS011;54576;52.020;5.536;2023-12-20T01:11:24;32.78;;;3.13;;
67776;SDS011;54576;52.020;5.536;2023-12-20T01:13:50;11.80;;;2.22;;
67776;SDS011;54576;52.020;5.536;2023-12-20T01:16:15;27.83;;;2.33;;
67776;SDS011;54576;52.020;5.536;2023-12-20T01:18:41;21.55;;;2.55;;
67776;SDS011;54576;52.020;5.536;2023-12-20T01:21:06;14.38;;;2.22;;
67776;SDS011;54576;52.020;5.536;2023-12-20T01:23:32;20.80;;;2.38;;
67776;SDS011;54576;52.020;5.536;2023-12-20T01:25:58;21.58;;;2.95;;
67776;SDS011;54576;52.020;5.536;2023-12-20T01:28:27;18.35;;;2.75;;
67776;SDS011;54576;52.020;5.536;2023-12-20T01:30:53;27.83;;;2.33;;
67776;SDS011;54576;52.020;5.536;2023-12-20T01:33:19;21.83;;;2.28;;
67776;SDS011;54576;52.020;5.536;2023-12-20T01:35:44;20.40;;;2.50;;
67776;SDS011;54576;52.020;5.536;2023-12-20T01:38:10;24.88;;;2.53;;
67776;SDS011;54576;52.020;5.536;2023-12-20T01:40:35;23.38;;;2.67;;
67776;SDS011;54576;52.020;5.536;2023-12-20T01:43:06;21.50;;;2.65;;
67776;SDS011;54576;52.020;5.536;2023-12-20T01:45:33;19.23;;;2.42;;
67776;SDS011;54576;52.020;5.536;2023-12-20T01:47:59;30.45;;;2.70;;
67776;SDS011;54576;52.020;5.536;2023-12-20T01:50:27;27.25;;;4.38;;
67776;SDS011;54576;52.020;5.536;2023-12-20T01:52:53;21.65;;;3.00;;
67776;SDS011;54576;52.020;5.536;2023-12-20T01:55:22;22.70;;;3.10;;
67776;SDS011;54576;52.020;5.536;2023-12-20T01:57:49;27.17;;;2.95;;
67776;SDS011;54576;52.020;5.536;2023-12-20T02:00:16;24.25;;;2.50;;
67776;SDS011;54576;52.020;5.536;2023-12-20T02:02:43;23.80;;;2.80;;
67776;SDS011;54576;52.020;5.536;2023-12-20T02:05:10;19.65;;;2.28;;
67776;SDS011;54576;52.020;5.536;2023-12-20T02:07:36;25.48;;;2.47;;
67776;SDS011;54576;52.020;5.536;2023-12-20T02:10:02;24.65;;;2.85;;
67776;SDS011;54576;52.020;5.536;2023-12-20T02:12:29;12.93;;;1.92;;
67776;SDS011;54576;52.020;5.536;2023-12-20T02:14:55;13.52;;;1.95;;
67776;SDS011;54576;52.020;5.536;2023-12-20T02:17:21;30.27;;;7.70;;
67776;SDS011;54576;52.020;5.536;2023-12-20T02:19:48;23.65;;;2.50;;
67776;SDS011;54576;52.020;5.536;2023-12-20T02:22:14;22.60;;;2.58;;
67776;SDS011;54576;52.020;5.536;2023-12-20T02:24:40;11.90;;;2.13;;
67776;SDS011;54576;52.020;5.536;2023-12-20T02:27:06;22.02;;;2.83;;
67776;SDS011;54576;52.020;5.536;2023-12-20T02:29:32;21.35;;;3.53;;
67776;SDS011;54576;52.020;5.536;2023-12-20T02:31:59;28.77;;;3.00;;
67776;SDS011;54576;52.020;5.536;2023-12-20T02:34:24;20.75;;;4.07;;
67776;SDS011;54576;52.020;5.536;2023-12-20T02:36:50;18.88;;;2.63;;
67776;SDS011;54576;52.020;5.536;2023-12-20T02:39:16;20.15;;;2.80;;
67776;SDS011;54576;52.020;5.536;2023-12-20T02:41:41;21.17;;;2.50;;
67776;SDS011;54576;52.020;5.536;2023-12-20T02:44:07;28.05;;;2.97;;
67776;SDS011;54576;52.020;5.536;2023-12-20T02:46:33;28.40;;;3.13;;
67776;SDS011;54576;52.020;5.536;2023-12-20T02:48:58;25.45;;;2.97;;
67776;SDS011;54576;52.020;5.536;2023-12-20T02:51:24;21.90;;;2.67;;
67776;SDS011;54576;52.020;5.536;2023-12-20T02:53:50;23.63;;;3.03;;
67776;SDS011;54576;52.020;5.536;2023-12-20T02:56:15;20.80;;;2.38;;
67776;SDS011;54576;52.020;5.536;2023-12-20T02:58:41;32.35;;;3.72;;
67776;SDS011;54576;52.020;5.536;2023-12-20T03:01:06;28.75;;;3.75;;
67776;SDS011;54576;52.020;5.536;2023-12-20T03:03:32;14.82;;;3.00;;
67776;SDS011;54576;52.020;5.536;2023-12-20T03:05:58;22.38;;;2.90;;
67776;SDS011;54576;52.020;5.536;2023-12-20T03:08:23;26.00;;;3.72;;
67776;SDS011;54576;52.020;5.536;2023-12-20T03:10:49;23.20;;;2.67;;
67776;SDS011;54576;52.020;5.536;2023-12-20T03:13:15;21.55;;;2.60;;
67776;SDS011;54576;52.020;5.536;2023-12-20T03:15:40;24.63;;;2.67;;
67776;SDS011;54576;52.020;5.536;2023-12-20T03:18:06;30.25;;;3.15;;
67776;SDS011;54576;52.020;5.536;2023-12-20T03:20:31;34.92;;;3.47;;
67776;SDS011;54576;52.020;5.536;2023-12-20T03:22:59;24.35;;;3.58;;
67776;SDS011;54576;52.020;5.536;2023-12-20T03:25:25;18.92;;;2.53;;
67776;SDS011;54576;52.020;5.536;2023-12-20T03:27:51;34.60;;;3.20;;
67776;SDS011;54576;52.020;5.536;2023-12-20T03:30:17;21.38;;;2.80;;
67776;SDS011;54576;52.020;5.536;2023-12-20T03:32:43;27.67;;;2.92;;
67776;SDS011;54576;52.020;5.536;2023-12-20T03:35:09;18.25;;;3.03;;
67776;SDS011;54576;52.020;5.536;2023-12-20T03:37:35;21.00;;;3.65;;
67776;SDS011;54576;52.020;5.536;2023-12-20T03:40:01;28.13;;;3.03;;
67776;SDS011;54576;52.020;5.536;2023-12-20T03:42:30;24.10;;;3.70;;
67776;SDS011;54576;52.020;5.536;2023-12-20T03:44:55;26.27;;;2.97;;
67776;SDS011;54576;52.020;5.536;2023-12-20T03:47:21;22.00;;;3.40;;
67776;SDS011;54576;52.020;5.536;2023-12-20T03:49:47;27.10;;;3.10;;
67776;SDS011;54576;52.020;5.536;2023-12-20T03:52:12;22.65;;;3.55;;
67776;SDS011;54576;52.020;5.536;2023-12-20T03:54:38;26.98;;;2.50;;
67776;SDS011;54576;52.020;5.536;2023-12-20T03:57:03;28.35;;;3.60;;
67776;SDS011;54576;52.020;5.536;2023-12-20T03:59:29;19.35;;;2.92;;
67776;SDS011;54576;52.020;5.536;2023-12-20T04:01:59;25.73;;;3.45;;
67776;SDS011;54576;52.020;5.536;2023-12-20T04:04:25;24.83;;;3.92;;
67776;SDS011;54576;52.020;5.536;2023-12-20T04:06:50;19.83;;;3.67;;
67776;SDS011;54576;52.020;5.536;2023-12-20T04:09:16;31.08;;;3.50;;
67776;SDS011;54576;52.020;5.536;2023-12-20T04:11:41;27.70;;;3.33;;
67776;SDS011;54576;52.020;5.536;2023-12-20T04:14:07;25.20;;;2.85;;
67776;SDS011;54576;52.020;5.536;2023-12-20T04:16:32;29.92;;;2.50;;
67776;SDS011;54576;52.020;5.536;2023-12-20T04:18:58;27.17;;;3.28;;
67776;SDS011;54576;52.020;5.536;2023-12-20T04:21:24;28.08;;;4.13;;
67776;SDS011;54576;52.020;5.536;2023-12-20T04:23:49;24.27;;;3.25;;
67776;SDS011;54576;52.020;5.536;2023-12-20T04:26:15;36.25;;;3.30;;
67776;SDS011;54576;52.020;5.536;2023-12-20T04:28:40;26.42;;;3.15;;
67776;SDS011;54576;52.020;5.536;2023-12-20T04:31:07;28.13;;;3.85;;
67776;SDS011;54576;52.020;5.536;2023-12-20T04:33:32;26.17;;;3.15;;
67776;SDS011;54576;52.020;5.536;2023-12-20T04:35:58;28.88;;;3.67;;
67776;SDS011;54576;52.020;5.536;2023-12-20T04:38:24;23.95;;;4.57;;
67776;SDS011;54576;52.020;5.536;2023-12-20T04:40:50;41.40;;;3.60;;
67776;SDS011;54576;52.020;5.536;2023-12-20T04:43:16;26.27;;;3.38;;
67776;SDS011;54576;52.020;5.536;2023-12-20T04:45:41;20.70;;;2.72;;
67776;SDS011;54576;52.020;5.536;2023-12-20T04:48:08;27.52;;;4.53;;
67776;SDS011;54576;52.020;5.536;2023-12-20T04:50:35;29.90;;;4.80;;
67776;SDS011;54576;52.020;5.536;2023-12-20T04:53:00;23.60;;;3.47;;
67776;SDS011;54576;52.020;5.536;2023-12-20T04:55:26;28.50;;;4.00;;
67776;SDS011;54576;52.020;5.536;2023-12-20T04:57:52;36.10;;;4.28;;
67776;SDS011;54576;52.020;5.536;2023-12-20T05:00:18;29.30;;;3.47;;
67776;SDS011;54576;52.020;5.536;2023-12-20T05:02:43;22.27;;;3.45;;
67776;SDS011;54576;52.020;5.536;2023-12-20T05:05:09;30.58;;;2.90;;
67776;SDS011;54576;52.020;5.536;2023-12-20T05:07:34;30.13;;;3.33;;
67776;SDS011;54576;52.020;5.536;2023-12-20T05:10:00;27.38;;;3.20;;
67776;SDS011;54576;52.020;5.536;2023-12-20T05:12:26;24.48;;;4.13;;
67776;SDS011;54576;52.020;5.536;2023-12-20T05:14:52;23.58;;;3.20;;
67776;SDS011;54576;52.020;5.536;2023-12-20T05:17:17;18.33;;;2.63;;
67776;SDS011;54576;52.020;5.536;2023-12-20T05:19:45;27.55;;;3.30;;
67776;SDS011;54576;52.020;5.536;2023-12-20T05:22:11;26.85;;;4.20;;
67776;SDS011;54576;52.020;5.536;2023-12-20T05:24:36;30.52;;;4.05;;
67776;SDS011;54576;52.020;5.536;2023-12-20T05:27:02;19.85;;;2.88;;
67776;SDS011;54576;52.020;5.536;2023-12-20T05:29:27;34.88;;;3.83;;
67776;SDS011;54576;52.020;5.536;2023-12-20T05:31:53;36.33;;;4.50;;
67776;SDS011;54576;52.020;5.536;2023-12-20T05:34:19;31.48;;;3.33;;
67776;SDS011;54576;52.020;5.536;2023-12-20T05:36:45;37.22;;;4.50;;
67776;SDS011;54576;52.020;5.536;2023-12-20T05:39:10;20.55;;;2.92;;
67776;SDS011;54576;52.020;5.536;2023-12-20T05:41:36;24.58;;;3.50;;
67776;SDS011;54576;52.020;5.536;2023-12-20T05:44:02;26.55;;;3.63;;
67776;SDS011;54576;52.020;5.536;2023-12-20T05:46:27;26.35;;;3.30;;
67776;SDS011;54576;52.020;5.536;2023-12-20T05:48:53;24.90;;;3.58;;
67776;SDS011;54576;52.020;5.536;2023-12-20T05:51:19;22.98;;;2.95;;
67776;SDS011;54576;52.020;5.536;2023-12-20T05:53:44;36.17;;;4.03;;
67776;SDS011;54576;52.020;5.536;2023-12-20T05:56:10;33.25;;;3.50;;
67776;SDS011;54576;52.020;5.536;2023-12-20T05:58:36;29.95;;;4.13;;
67776;SDS011;54576;52.020;5.536;2023-12-20T06:01:04;18.00;;;3.47;;
67776;SDS011;54576;52.020;5.536;2023-12-20T06:03:30;36.65;;;7.90;;
67776;SDS011;54576;52.020;5.536;2023-12-20T06:05:56;49.53;;;13.32;;
67776;SDS011;54576;52.020;5.536;2023-12-20T06:08:21;42.78;;;6.70;;
67776;SDS011;54576;52.020;5.536;2023-12-20T06:10:47;30.35;;;6.75;;
67776;SDS011;54576;52.020;5.536;2023-12-20T06:13:13;32.80;;;8.18;;
67776;SDS011;54576;52.020;5.536;2023-12-20T06:15:39;38.58;;;10.20;;
67776;SDS011;54576;52.020;5.536;2023-12-20T06:18:05;40.70;;;14.07;;
67776;SDS011;54576;52.020;5.536;2023-12-20T06:20:31;27.27;;;7.15;;
67776;SDS011;54576;52.020;5.536;2023-12-20T06:22:57;43.38;;;9.45;;
67776;SDS011;54576;52.020;5.536;2023-12-20T06:25:22;71.93;;;20.63;;
67776;SDS011;54576;52.020;5.536;2023-12-20T06:27:49;58.47;;;17.58;;
67776;SDS011;54576;52.020;5.536;2023-12-20T06:30:15;51.10;;;13.38;;
67776;SDS011;54576;52.020;5.536;2023-12-20T06:32:41;36.22;;;13.57;;
67776;SDS011;54576;52.020;5.536;2023-12-20T06:35:07;67.65;;;19.20;;
67776;SDS011;54576;52.020;5.536;2023-12-20T06:37:34;48.28;;;16.25;;
67776;SDS011;54576;52.020;5.536;2023-12-20T06:39:59;80.05;;;28.55;;
67776;SDS011;54576;52.020;5.536;2023-12-20T06:42:25;57.00;;;16.67;;
67776;SDS011;54576;52.020;5.536;2023-12-20T06:44:51;49.50;;;18.00;;
67776;SDS011;54576;52.020;5.536;2023-12-20T06:47:16;91.97;;;34.47;;
67776;SDS011;54576;52.020;5.536;2023-12-20T06:49:42;53.78;;;15.35;;
67776;SDS011;54576;52.020;5.536;2023-12-20T06:52:07;34.10;;;9.15;;
67776;SDS011;54576;52.020;5.536;2023-12-20T06:54:33;37.75;;;12.88;;
67776;SDS011;54576;52.020;5.536;2023-12-20T06:57:01;33.22;;;5.90;;
67776;SDS011;54576;52.020;5.536;2023-12-20T06:59:29;30.00;;;8.80;;
67776;SDS011;54576;52.020;5.536;2023-12-20T07:01:54;38.55;;;9.90;;
67776;SDS011;54576;52.020;5.536;2023-12-20T07:04:20;47.42;;;10.63;;
67776;SDS011;54576;52.020;5.536;2023-12-20T07:06:47;26.15;;;4.07;;
67776;SDS011;54576;52.020;5.536;2023-12-20T07:09:13;24.90;;;5.28;;
67776;SDS011;54576;52.020;5.536;2023-12-20T07:11:39;20.45;;;3.60;;
67776;SDS011;54576;52.020;5.536;2023-12-20T07:14:04;16.98;;;2.97;;
67776;SDS011;54576;52.020;5.536;2023-12-20T07:16:30;13.38;;;3.20;;
67776;SDS011;54576;52.020;5.536;2023-12-20T07:18:55;24.80;;;3.97;;
67776;SDS011;54576;52.020;5.536;2023-12-20T07:21:22;22.50;;;3.45;;
67776;SDS011;54576;52.020;5.536;2023-12-20T07:23:47;23.30;;;3.50;;
67776;SDS011;54576;52.020;5.536;2023-12-20T07:26:13;32.20;;;4.22;;
67776;SDS011;54576;52.020;5.536;2023-12-20T07:28:38;26.33;;;3.45;;
67776;SDS011;54576;52.020;5.536;2023-12-20T07:31:05;12.38;;;2.70;;
67776;SDS011;54576;52.020;5.536;2023-12-20T07:33:31;17.40;;;2.75;;
67776;SDS011;54576;52.020;5.536;2023-12-20T07:35:56;23.10;;;3.17;;
67776;SDS011;54576;52.020;5.536;2023-12-20T07:38:22;30.63;;;3.55;;
67776;SDS011;54576;52.020;5.536;2023-12-20T07:40:47;25.17;;;3.22;;
67776;SDS011;54576;52.020;5.536;2023-12-20T07:43:13;25.50;;;3.30;;
67776;SDS011;54576;52.020;5.536;2023-12-20T07:45:38;23.52;;;3.83;;
67776;SDS011;54576;52.020;5.536;2023-12-20T07:48:04;19.58;;;2.95;;
67776;SDS011;54576;52.020;5.536;2023-12-20T07:50:31;26.85;;;3.65;;
67776;SDS011;54576;52.020;5.536;2023-12-20T07:52:57;27.65;;;3.50;;
67776;SDS011;54576;52.020;5.536;2023-12-20T07:55:24;22.90;;;3.33;;
67776;SDS011;54576;52.020;5.536;2023-12-20T07:57:50;33.85;;;3.85;;
67776;SDS011;54576;52.020;5.536;2023-12-20T08:00:15;23.40;;;2.78;;
67776;SDS011;54576;52.020;5.536;2023-12-20T08:02:41;25.83;;;3.42;;
67776;SDS011;54576;52.020;5.536;2023-12-20T08:05:07;24.60;;;3.78;;
67776;SDS011;54576;52.020;5.536;2023-12-20T08:07:33;27.73;;;3.85;;
67776;SDS011;54576;52.020;5.536;2023-12-20T08:09:58;19.90;;;3.13;;
67776;SDS011;54576;52.020;5.536;2023-12-20T08:12:24;27.23;;;3.70;;
67776;SDS011;54576;52.020;5.536;2023-12-20T08:14:52;28.30;;;3.70;;
67776;SDS011;54576;52.020;5.536;2023-12-20T08:17:18;34.47;;;4.70;;
67776;SDS011;54576;52.020;5.536;2023-12-20T08:19:44;20.42;;;3.22;;
67776;SDS011;54576;52.020;5.536;2023-12-20T08:22:09;31.58;;;3.72;;
67776;SDS011;54576;52.020;5.536;2023-12-20T08:24:36;19.75;;;3.85;;
67776;SDS011;54576;52.020;5.536;2023-12-20T08:27:02;23.85;;;3.33;;
67776;SDS011;54576;52.020;5.536;2023-12-20T08:29:27;26.17;;;3.58;;
67776;SDS011;54576;52.020;5.536;2023-12-20T08:31:55;21.63;;;3.38;;
67776;SDS011;54576;52.020;5.536;2023-12-20T08:34:21;30.15;;;4.50;;
67776;SDS011;54576;52.020;5.536;2023-12-20T08:36:48;28.33;;;5.10;;
67776;SDS011;54576;52.020;5.536;2023-12-20T08:39:16;30.35;;;3.33;;
67776;SDS011;54576;52.020;5.536;2023-12-20T08:41:42;30.48;;;4.10;;
67776;SDS011;54576;52.020;5.536;2023-12-20T08:44:08;29.17;;;4.00;;
67776;SDS011;54576;52.020;5.536;2023-12-20T08:46:34;26.92;;;3.50;;
67776;SDS011;54576;52.020;5.536;2023-12-20T08:49:00;24.77;;;2.95;;
67776;SDS011;54576;52.020;5.536;2023-12-20T08:51:27;22.73;;;4.38;;
67776;SDS011;54576;52.020;5.536;2023-12-20T08:53:53;19.35;;;3.30;;
67776;SDS011;54576;52.020;5.536;2023-12-20T08:56:19;21.17;;;3.60;;
67776;SDS011;54576;52.020;5.536;2023-12-20T08:58:45;15.30;;;2.45;;
67776;SDS011;54576;52.020;5.536;2023-12-20T09:01:12;27.05;;;4.30;;
67776;SDS011;54576;52.020;5.536;2023-12-20T09:03:38;33.60;;;4.00;;
67776;SDS011;54576;52.020;5.536;2023-12-20T09:06:04;23.08;;;5.03;;
67776;SDS011;54576;52.020;5.536;2023-12-20T09:08:30;27.42;;;3.17;;
67776;SDS011;54576;52.020;5.536;2023-12-20T09:10:56;30.02;;;4.13;;
67776;SDS011;54576;52.020;5.536;2023-12-20T09:13:22;22.10;;;3.40;;
67776;SDS011;54576;52.020;5.536;2023-12-20T09:15:54;29.55;;;3.70;;
67776;SDS011;54576;52.020;5.536;2023-12-20T09:18:20;23.48;;;3.38;;
67776;SDS011;54576;52.020;5.536;2023-12-20T09:20:45;30.17;;;3.40;;
67776;SDS011;54576;52.020;5.536;2023-12-20T09:23:11;21.30;;;2.88;;
67776;SDS011;54576;52.020;5.536;2023-12-20T09:25:37;16.13;;;2.45;;
67776;SDS011;54576;52.020;5.536;2023-12-20T09:28:02;28.88;;;3.83;;
67776;SDS011;54576;52.020;5.536;2023-12-20T09:30:28;24.95;;;3.65;;
67776;SDS011;54576;52.020;5.536;2023-12-20T09:32:54;26.40;;;3.83;;
67776;SDS011;54576;52.020;5.536;2023-12-20T09:35:20;25.15;;;3.53;;
67776;SDS011;54576;52.020;5.536;2023-12-20T09:37:45;16.40;;;2.92;;
67776;SDS011;54576;52.020;5.536;2023-12-20T09:40:12;23.25;;;3.80;;
67776;SDS011;54576;52.020;5.536;2023-12-20T09:42:43;20.15;;;3.00;;
67776;SDS011;54576;52.020;5.536;2023-12-20T09:45:11;25.52;;;3.08;;
67776;SDS011;54576;52.020;5.536;2023-12-20T09:47:43;24.60;;;3.30;;
67776;SDS011;54576;52.020;5.536;2023-12-20T09:50:09;15.43;;;2.97;;
67776;SDS011;54576;52.020;5.536;2023-12-20T09:52:36;25.05;;;4.05;;
67776;SDS011;54576;52.020;5.536;2023-12-20T09:55:04;24.77;;;3.45;;
67776;SDS011;54576;52.020;5.536;2023-12-20T09:57:33;34.03;;;3.13;;
67776;SDS011;54576;52.020;5.536;2023-12-20T09:59:58;21.42;;;3.38;;
67776;SDS011;54576;52.020;5.536;2023-12-20T10:02:24;29.60;;;3.03;;
67776;SDS011;54576;52.020;5.536;2023-12-20T10:04:54;24.70;;;3.13;;
67776;SDS011;54576;52.020;5.536;2023-12-20T10:07:20;19.58;;;3.40;;
67776;SDS011;54576;52.020;5.536;2023-12-20T10:09:47;17.58;;;3.97;;
67776;SDS011;54576;52.020;5.536;2023-12-20T10:12:13;22.67;;;2.70;;
67776;SDS011;54576;52.020;5.536;2023-12-20T10:14:39;24.98;;;3.30;;
67776;SDS011;54576;52.020;5.536;2023-12-20T10:17:05;24.08;;;3.33;;
67776;SDS011;54576;52.020;5.536;2023-12-20T10:19:32;23.48;;;3.40;;
67776;SDS011;54576;52.020;5.536;2023-12-20T10:21:59;24.52;;;2.80;;
67776;SDS011;54576;52.020;5.536;2023-12-20T10:24:25;19.02;;;3.05;;
67776;SDS011;54576;52.020;5.536;2023-12-20T10:27:02;22.38;;;3.22;;
67776;SDS011;54576;52.020;5.536;2023-12-20T10:29:35;25.77;;;3.65;;
67776;SDS011;54576;52.020;5.536;2023-12-20T10:34:50;28.40;;;3.45;;
67776;SDS011;54576;52.020;5.536;2023-12-20T10:37:16;22.35;;;3.53;;
67776;SDS011;54576;52.020;5.536;2023-12-20T10:39:42;22.15;;;3.30;;
67776;SDS011;54576;52.020;5.536;2023-12-20T10:42:09;25.33;;;4.15;;
67776;SDS011;54576;52.020;5.536;2023-12-20T10:44:36;21.80;;;3.28;;
67776;SDS011;54576;52.020;5.536;2023-12-20T10:47:02;21.48;;;2.83;;
67776;SDS011;54576;52.020;5.536;2023-12-20T10:49:29;21.75;;;3.50;;
67776;SDS011;54576;52.020;5.536;2023-12-20T10:51:55;29.05;;;3.65;;
67776;SDS011;54576;52.020;5.536;2023-12-20T10:54:24;25.20;;;3.05;;
67776;SDS011;54576;52.020;5.536;2023-12-20T10:56:50;22.58;;;3.28;;
67776;SDS011;54576;52.020;5.536;2023-12-20T10:59:17;29.30;;;4.28;;
67776;SDS011;54576;52.020;5.536;2023-12-20T11:01:45;25.52;;;3.75;;
67776;SDS011;54576;52.020;5.536;2023-12-20T11:04:15;31.77;;;4.25;;
67776;SDS011;54576;52.020;5.536;2023-12-20T11:09:16;24.98;;;3.42;;
67776;SDS011;54576;52.020;5.536;2023-12-20T11:11:59;16.30;;;2.90;;
67776;SDS011;54576;52.020;5.536;2023-12-20T11:14:40;32.05;;;3.80;;
67776;SDS011;54576;52.020;5.536;2023-12-20T11:17:08;20.00;;;2.78;;
67776;SDS011;54576;52.020;5.536;2023-12-20T11:22:30;17.95;;;2.95;;
67776;SDS011;54576;52.020;5.536;2023-12-20T11:25:04;15.63;;;2.58;;
67776;SDS011;54576;52.020;5.536;2023-12-20T11:27:35;20.55;;;2.85;;
67776;SDS011;54576;52.020;5.536;2023-12-20T11:30:02;17.50;;;2.70;;
67776;SDS011;54576;52.020;5.536;2023-12-20T11:32:32;25.17;;;3.35;;
67776;SDS011;54576;52.020;5.536;2023-12-20T11:35:00;13.30;;;2.42;;
67776;SDS011;54576;52.020;5.536;2023-12-20T11:37:41;12.13;;;2.40;;
67776;SDS011;54576;52.020;5.536;2023-12-20T11:40:08;17.98;;;2.95;;
67776;SDS011;54576;52.020;5.536;2023-12-20T11:42:38;16.75;;;2.30;;
67776;SDS011;54576;52.020;5.536;2023-12-20T11:45:05;13.73;;;1.95;;
67776;SDS011;54576;52.020;5.536;2023-12-20T11:47:34;15.40;;;2.58;;
67776;SDS011;54576;52.020;5.536;2023-12-20T11:50:00;7.22;;;1.73;;
67776;SDS011;54576;52.020;5.536;2023-12-20T11:52:28;16.83;;;2.80;;
67776;SDS011;54576;52.020;5.536;2023-12-20T11:54:54;16.73;;;3.83;;
67776;SDS011;54576;52.020;5.536;2023-12-20T11:57:20;16.02;;;3.13;;
67776;SDS011;54576;52.020;5.536;2023-12-20T11:59:45;16.98;;;2.72;;
67776;SDS011;54576;52.020;5.536;2023-12-20T12:02:11;11.38;;;2.25;;
67776;SDS011;54576;52.020;5.536;2023-12-20T12:04:37;25.60;;;3.13;;
67776;SDS011;54576;52.020;5.536;2023-12-20T12:07:03;14.85;;;3.13;;
67776;SDS011;54576;52.020;5.536;2023-12-20T12:09:29;22.73;;;2.83;;
67776;SDS011;54576;52.020;5.536;2023-12-20T12:11:55;16.52;;;2.45;;
67776;SDS011;54576;52.020;5.536;2023-12-20T12:14:21;18.27;;;3.20;;
67776;SDS011;54576;52.020;5.536;2023-12-20T12:16:47;18.52;;;3.55;;
67776;SDS011;54576;52.020;5.536;2023-12-20T12:19:25;12.88;;;2.35;;
67776;SDS011;54576;52.020;5.536;2023-12-20T12:22:04;16.48;;;2.97;;
67776;SDS011;54576;52.020;5.536;2023-12-20T12:24:32;15.85;;;2.72;;
67776;SDS011;54576;52.020;5.536;2023-12-20T12:26:58;28.05;;;3.13;;
67776;SDS011;54576;52.020;5.536;2023-12-20T12:29:24;21.48;;;3.03;;
67776;SDS011;54576;52.020;5.536;2023-12-20T12:31:50;13.20;;;2.40;;
67776;SDS011;54576;52.020;5.536;2023-12-20T12:34:17;17.15;;;2.30;;
67776;SDS011;54576;52.020;5.536;2023-12-20T12:36:43;18.17;;;2.78;;
67776;SDS011;54576;52.020;5.536;2023-12-20T12:39:13;22.77;;;2.95;;
67776;SDS011;54576;52.020;5.536;2023-12-20T12:41:40;20.08;;;2.17;;
67776;SDS011;54576;52.020;5.536;2023-12-20T12:44:06;13.90;;;2.60;;
67776;SDS011;54576;52.020;5.536;2023-12-20T12:46:32;18.33;;;2.70;;
67776;SDS011;54576;52.020;5.536;2023-12-20T12:48:58;18.70;;;2.13;;
67776;SDS011;54576;52.020;5.536;2023-12-20T12:51:24;21.10;;;2.83;;
67776;SDS011;54576;52.020;5.536;2023-12-20T12:53:51;22.42;;;3.13;;
67776;SDS011;54576;52.020;5.536;2023-12-20T12:56:17;16.83;;;2.47;;
67776;SDS011;54576;52.020;5.536;2023-12-20T12:58:43;12.45;;;2.28;;
67776;SDS011;54576;52.020;5.536;2023-12-20T13:01:09;17.73;;;2.17;;
67776;SDS011;54576;52.020;5.536;2023-12-20T13:03:35;21.15;;;2.97;;
67776;SDS011;54576;52.020;5.536;2023-12-20T13:06:01;15.98;;;2.63;;
67776;SDS011;54576;52.020;5.536;2023-12-20T13:08:28;21.88;;;2.35;;
67776;SDS011;54576;52.020;5.536;2023-12-20T13:10:57;16.00;;;2.40;;
67776;SDS011;54576;52.020;5.536;2023-12-20T13:13:26;26.75;;;3.42;;
67776;SDS011;54576;52.020;5.536;2023-12-20T13:15:52;19.95;;;2.65;;
67776;SDS011;54576;52.020;5.536;2023-12-20T13:18:20;19.08;;;2.42;;
67776;SDS011;54576;52.020;5.536;2023-12-20T13:20:46;26.05;;;4.10;;
67776;SDS011;54576;52.020;5.536;2023-12-20T13:23:12;19.17;;;3.15;;
67776;SDS011;54576;52.020;5.536;2023-12-20T13:25:39;12.45;;;2.42;;
67776;SDS011;54576;52.020;5.536;2023-12-20T13:28:05;19.95;;;3.35;;
67776;SDS011;54576;52.020;5.536;2023-12-20T13:30:32;20.25;;;2.90;;
67776;SDS011;54576;52.020;5.536;2023-12-20T13:32:59;25.67;;;3.53;;
67776;SDS011;54576;52.020;5.536;2023-12-20T13:35:25;29.90;;;3.13;;
67776;SDS011;54576;52.020;5.536;2023-12-20T13:37:51;25.13;;;2.67;;
67776;SDS011;54576;52.020;5.536;2023-12-20T13:40:17;18.95;;;2.83;;
67776;SDS011;54576;52.020;5.536;2023-12-20T13:42:43;14.73;;;2.78;;
67776;SDS011;54576;52.020;5.536;2023-12-20T13:45:10;17.00;;;2.45;;
67776;SDS011;54576;52.020;5.536;2023-12-20T13:47:36;18.80;;;3.22;;
67776;SDS011;54576;52.020;5.536;2023-12-20T13:50:02;12.15;;;2.25;;
67776;SDS011;54576;52.020;5.536;2023-12-20T13:52:29;19.45;;;2.40;;
67776;SDS011;54576;52.020;5.536;2023-12-20T13:54:55;23.33;;;2.72;;
67776;SDS011;54576;52.020;5.536;2023-12-20T13:57:21;15.27;;;2.78;;
67776;SDS011;54576;52.020;5.536;2023-12-20T13:59:47;19.40;;;4.97;;
67776;SDS011;54576;52.020;5.536;2023-12-20T14:02:13;28.58;;;5.70;;
67776;SDS011;54576;52.020;5.536;2023-12-20T14:04:41;15.48;;;3.28;;
67776;SDS011;54576;52.020;5.536;2023-12-20T14:07:07;18.67;;;2.42;;
67776;SDS011;54576;52.020;5.536;2023-12-20T14:09:34;27.15;;;2.83;;
67776;SDS011;54576;52.020;5.536;2023-12-20T14:12:00;30.08;;;4.15;;
67776;SDS011;54576;52.020;5.536;2023-12-20T14:14:26;34.22;;;6.95;;
67776;SDS011;54576;52.020;5.536;2023-12-20T14:16:52;37.38;;;8.60;;
67776;SDS011;54576;52.020;5.536;2023-12-20T14:19:18;30.63;;;9.02;;
67776;SDS011;54576;52.020;5.536;2023-12-20T14:21:44;16.02;;;3.00;;
67776;SDS011;54576;52.020;5.536;2023-12-20T14:24:14;16.33;;;2.47;;
67776;SDS011;54576;52.020;5.536;2023-12-20T14:26:40;20.30;;;3.10;;
67776;SDS011;54576;52.020;5.536;2023-12-20T14:29:06;15.40;;;2.70;;
67776;SDS011;54576;52.020;5.536;2023-12-20T14:31:33;21.80;;;4.78;;
67776;SDS011;54576;52.020;5.536;2023-12-20T14:33:59;17.88;;;3.92;;
67776;SDS011;54576;52.020;5.536;2023-12-20T14:36:28;19.90;;;3.35;;